createdAt,value
2022-08-10T00:01:54.028Z,94.50
2022-08-10T00:04:23.446Z,94.90
2022-08-10T00:06:55.001Z,94.80
2022-08-10T00:09:23.472Z,94.60
2022-08-10T00:11:50.491Z,95.10
2022-08-10T00:14:18.290Z,95.10
2022-08-10T00:16:45.228Z,95.00
2022-08-10T00:19:12.167Z,95.00
2022-08-10T00:21:39.380Z,94.90
2022-08-10T00:24:06.442Z,95.10
2022-08-10T00:28:01.133Z,95.30
2022-08-10T00:29:21.372Z,95.60
2022-08-10T00:31:58.099Z,95.60
2022-08-10T00:34:30.853Z,96.20
2022-08-10T00:36:58.514Z,96.20
2022-08-10T00:39:26.336Z,96.20
2022-08-10T00:42:02.289Z,96.00
2022-08-10T00:44:47.705Z,96.30
2022-08-10T00:47:36.287Z,96.90
2022-08-10T00:50:01.828Z,97.00
2022-08-10T00:52:31.042Z,97.00
2022-08-10T00:54:59.256Z,97.20
2022-08-10T00:57:26.403Z,97.60
2022-08-10T00:59:58.521Z,97.30
2022-08-10T01:02:27.611Z,97.10
2022-08-10T01:05:00.966Z,97.10
2022-08-10T01:07:34.598Z,97.00
2022-08-10T01:10:19.368Z,97.30
2022-08-10T01:13:01.722Z,97.70
2022-08-10T01:15:54.354Z,97.70
2022-08-10T01:18:27.458Z,97.80
2022-08-10T01:21:18.077Z,97.60
2022-08-10T01:24:02.999Z,97.70
2022-08-10T01:26:54.550Z,98.10
2022-08-10T01:29:35.564Z,98.60
2022-08-10T01:32:07.376Z,98.30
2022-08-10T01:35:01.973Z,98.00
2022-08-10T01:37:34.416Z,98.10
2022-08-10T01:40:04.723Z,98.40
2022-08-10T01:42:36.111Z,98.90
2022-08-10T01:45:07.209Z,99.50
2022-08-10T01:48:01.158Z,99.90
2022-08-10T01:50:59.127Z,99.80
2022-08-10T01:53:41.006Z,99.90
2022-08-10T01:56:11.006Z,99.50
2022-08-10T01:58:39.568Z,99.90
2022-08-10T02:01:09.625Z,99.90
2022-08-10T02:04:03.067Z,99.90
2022-08-10T02:06:28.056Z,99.90
2022-08-10T02:09:05.866Z,99.90
2022-08-10T02:12:06.515Z,99.90
2022-08-10T02:14:21.656Z,99.90
2022-08-10T02:16:51.623Z,99.90
2022-08-10T02:19:23.883Z,99.90
2022-08-10T02:22:15.417Z,99.90
2022-08-10T02:24:42.874Z,99.90
2022-08-10T02:27:11.362Z,99.90
2022-08-10T02:29:42.288Z,99.90
2022-08-10T02:32:11.549Z,99.90
2022-08-10T02:34:41.135Z,99.90
2022-08-10T02:37:10.851Z,99.90
2022-08-10T02:39:39.614Z,99.90
2022-08-10T02:45:20.715Z,99.90
2022-08-10T02:45:30.745Z,99.90
2022-08-10T02:48:07.204Z,99.90
2022-08-10T02:50:36.650Z,99.90
2022-08-10T02:53:56.108Z,99.90
2022-08-10T02:56:11.952Z,99.90
2022-08-10T02:58:44.349Z,99.90
2022-08-10T03:01:14.448Z,99.90
2022-08-10T03:03:50.377Z,99.90
2022-08-10T03:06:22.197Z,99.90
2022-08-10T03:08:49.244Z,99.90
2022-08-10T03:12:36.038Z,99.90
2022-08-10T03:14:24.391Z,99.90
2022-08-10T03:16:54.060Z,99.90
2022-08-10T03:20:33.614Z,99.90
2022-08-10T03:22:11.612Z,99.90
2022-08-10T03:24:39.745Z,99.90
2022-08-10T03:27:07.279Z,99.90
2022-08-10T03:30:23.221Z,99.90
2022-08-10T03:32:24.250Z,99.90
2022-08-10T03:34:52.316Z,99.90
2022-08-10T03:37:19.430Z,99.90
2022-08-10T03:39:46.522Z,99.90
2022-08-10T03:42:14.993Z,99.90
2022-08-10T03:44:45.237Z,99.90
2022-08-10T03:47:17.558Z,99.90
2022-08-10T03:49:47.196Z,99.90
2022-08-10T03:52:15.399Z,99.90
2022-08-10T03:54:43.065Z,99.90
2022-08-10T03:57:10.883Z,99.90
2022-08-10T03:59:38.336Z,99.90
2022-08-10T04:02:46.488Z,99.90
2022-08-10T04:04:55.263Z,99.90
2022-08-10T04:07:22.259Z,99.90
2022-08-10T04:09:55.350Z,99.90
2022-08-10T04:12:23.993Z,99.90
2022-08-10T04:14:52.891Z,99.90
2022-08-10T04:18:01.257Z,99.90
2022-08-10T04:20:30.034Z,99.90
2022-08-10T04:23:06.134Z,99.90
2022-08-10T04:25:33.868Z,99.90
2022-08-10T04:28:01.272Z,99.90
2022-08-10T04:30:31.630Z,99.90
2022-08-10T04:33:00.811Z,99.90
2022-08-10T04:35:29.327Z,99.90
2022-08-10T04:37:57.986Z,99.90
2022-08-10T04:40:29.190Z,99.90
2022-08-10T04:43:02.413Z,99.90
2022-08-10T04:45:47.579Z,99.90
2022-08-10T04:48:40.278Z,99.90
2022-08-10T04:51:06.088Z,99.90
2022-08-10T04:54:04.825Z,99.90
2022-08-10T04:56:21.387Z,99.90
2022-08-10T04:58:59.385Z,99.90
2022-08-10T05:01:26.232Z,99.90
2022-08-10T05:04:36.254Z,99.90
2022-08-10T05:06:40.017Z,99.90
2022-08-10T05:09:06.824Z,99.90
2022-08-10T05:11:33.779Z,99.90
2022-08-10T05:14:00.601Z,99.90
2022-08-10T05:16:32.019Z,99.90
2022-08-10T05:18:59.204Z,99.90
2022-08-10T05:22:03.571Z,99.90
2022-08-10T05:24:12.958Z,99.90
2022-08-10T05:26:55.210Z,99.90
2022-08-10T05:29:26.628Z,99.90
2022-08-10T05:31:54.152Z,99.90
2022-08-10T05:34:26.549Z,99.90
2022-08-10T05:36:55.405Z,99.90
2022-08-10T05:39:30.420Z,99.90
2022-08-10T05:42:01.481Z,99.90
2022-08-10T05:44:29.418Z,99.90
2022-08-10T05:46:56.517Z,99.90
2022-08-10T05:49:23.425Z,99.90
2022-08-10T05:51:50.756Z,99.90
2022-08-10T05:54:17.970Z,99.90
2022-08-10T05:56:56.057Z,99.90
2022-08-10T06:00:35.828Z,99.90
2022-08-10T06:02:34.932Z,99.90
2022-08-10T06:05:11.212Z,99.00
2022-08-10T06:07:42.623Z,98.40
2022-08-10T06:10:12.697Z,97.70
2022-08-10T06:12:54.344Z,97.10
2022-08-10T06:15:50.918Z,96.50
2022-08-10T06:18:15.561Z,95.00
2022-08-10T06:20:43.690Z,95.10
2022-08-10T06:23:11.945Z,92.30
2022-08-10T06:26:11.978Z,90.20
2022-08-10T06:28:29.583Z,87.10
2022-08-10T06:30:57.699Z,85.90
2022-08-10T06:33:26.570Z,83.60
2022-08-10T06:35:56.495Z,84.10
2022-08-10T06:38:29.009Z,81.50
2022-08-10T06:40:58.784Z,81.40
2022-08-10T06:43:50.112Z,81.90
2022-08-10T06:46:20.585Z,81.10
2022-08-10T06:48:52.895Z,79.80
2022-08-10T06:51:26.735Z,82.30
2022-08-10T06:54:00.279Z,79.30
2022-08-10T06:56:37.889Z,75.70
2022-08-10T06:59:27.570Z,76.10
2022-08-10T07:02:01.316Z,74.10
2022-08-10T07:04:35.319Z,76.10
2022-08-10T07:07:07.735Z,74.70
2022-08-10T07:09:39.973Z,74.40
2022-08-10T07:12:09.661Z,75.90
2022-08-10T07:14:43.595Z,73.20
2022-08-10T07:17:16.658Z,73.80
2022-08-10T07:19:50.515Z,74.00
2022-08-10T07:23:55.404Z,73.90
2022-08-10T07:25:15.083Z,73.10
2022-08-10T07:28:00.858Z,73.40
2022-08-10T07:30:36.034Z,75.60
2022-08-10T07:33:04.851Z,73.80
2022-08-10T07:35:42.322Z,75.10
2022-08-10T07:38:17.143Z,75.20
2022-08-10T07:40:44.606Z,74.10
2022-08-10T07:43:12.717Z,75.20
2022-08-10T07:45:40.555Z,76.30
2022-08-10T07:48:14.119Z,76.20
2022-08-10T07:50:42.770Z,72.50
2022-08-10T07:53:17.165Z,74.20
2022-08-10T07:56:04.328Z,73.60
2022-08-10T07:58:46.325Z,68.80
2022-08-10T08:01:23.147Z,69.40
2022-08-10T08:04:05.815Z,70.50
2022-08-10T08:06:39.203Z,68.50
2022-08-10T08:09:26.872Z,70.30
2022-08-10T08:11:55.411Z,69.70
2022-08-10T08:14:23.832Z,69.20
2022-08-10T08:16:53.265Z,67.40
2022-08-10T08:19:27.873Z,67.70
2022-08-10T08:24:08.885Z,71.80
2022-08-10T08:24:52.423Z,71.10
2022-08-10T08:27:21.104Z,71.00
2022-08-10T08:29:49.625Z,69.40
2022-08-10T08:32:29.131Z,68.70
2022-08-10T08:35:11.927Z,69.60
2022-08-10T08:38:29.851Z,67.40
2022-08-10T08:40:32.813Z,68.70
2022-08-10T08:43:37.152Z,68.30
2022-08-10T08:46:17.292Z,67.60
2022-08-10T08:50:04.833Z,68.90
2022-08-10T08:52:37.777Z,67.20
2022-08-10T08:56:03.013Z,68.00
2022-08-10T08:58:31.361Z,66.80
2022-08-10T09:01:06.741Z,62.80
2022-08-10T09:03:58.670Z,63.80
2022-08-10T09:06:48.679Z,62.70
2022-08-10T09:09:47.305Z,64.00
2022-08-10T09:12:29.356Z,66.60
2022-08-10T09:15:08.053Z,65.60
2022-08-10T09:17:56.268Z,65.90
2022-08-10T09:20:58.106Z,65.50
2022-08-10T09:24:01.385Z,65.20
2022-08-10T09:26:58.934Z,63.90
2022-08-10T09:29:28.595Z,62.50
2022-08-10T09:36:15.580Z,64.10
2022-08-10T09:36:26.578Z,61.00
2022-08-10T09:38:03.450Z,61.80
2022-08-10T09:41:01.019Z,62.10
2022-08-10T09:43:41.109Z,61.50
2022-08-10T09:46:33.436Z,59.10
2022-08-10T09:49:18.512Z,61.20
2022-08-10T09:52:07.341Z,59.50
2022-08-10T09:54:53.169Z,61.20
2022-08-10T09:57:55.260Z,62.90
2022-08-10T10:00:20.978Z,60.50
2022-08-10T10:03:17.744Z,58.60
2022-08-10T10:06:10.924Z,57.70
2022-08-10T10:08:42.937Z,60.30
2022-08-10T10:11:16.796Z,59.10
2022-08-10T10:14:06.440Z,60.00
2022-08-10T10:17:00.989Z,59.30
2022-08-10T10:19:52.577Z,59.20
2022-08-10T10:22:28.240Z,59.60
2022-08-10T10:25:19.972Z,57.50
2022-08-10T10:28:13.453Z,59.20
2022-08-10T10:31:16.919Z,58.20
2022-08-10T10:34:02.632Z,56.60
2022-08-10T10:36:30.744Z,59.40
2022-08-10T10:39:00.139Z,57.30
2022-08-10T10:42:03.729Z,58.00
2022-08-10T10:45:00.635Z,57.00
2022-08-10T10:47:42.376Z,57.60
2022-08-10T10:50:15.154Z,56.90
2022-08-10T10:53:00.466Z,56.70
2022-08-10T10:56:13.466Z,55.90
2022-08-10T10:58:43.550Z,57.00
2022-08-10T11:01:22.724Z,54.00
2022-08-10T11:04:06.577Z,54.30
2022-08-10T11:07:10.425Z,53.70
2022-08-10T11:10:04.800Z,54.80
2022-08-10T11:13:02.269Z,54.30
2022-08-10T11:20:02.749Z,54.00
2022-08-10T11:22:53.124Z,54.40
2022-08-10T11:25:29.921Z,53.80
2022-08-10T11:28:31.057Z,54.40
2022-08-10T11:31:15.619Z,56.00
2022-08-10T11:34:49.182Z,56.30
2022-08-10T11:37:11.024Z,54.10
2022-08-10T11:39:57.719Z,56.20
2022-08-10T11:42:57.110Z,54.30
2022-08-10T11:45:34.466Z,51.20
2022-08-10T11:48:54.509Z,51.10
2022-08-10T11:51:10.332Z,52.40
2022-08-10T11:54:19.488Z,50.40
2022-08-10T11:56:52.893Z,52.00
2022-08-10T11:59:42.661Z,52.30
2022-08-10T12:05:57.247Z,51.90
2022-08-10T12:10:04.071Z,50.80
2022-08-10T12:11:24.417Z,48.40
2022-08-10T12:18:22.473Z,53.10
2022-08-10T12:21:36.668Z,51.00
2022-08-10T12:24:33.856Z,51.30
2022-08-10T12:27:15.913Z,51.30
2022-08-10T12:29:53.925Z,51.10
2022-08-10T12:32:48.009Z,51.40
2022-08-10T12:35:35.755Z,50.20
2022-08-10T12:38:21.528Z,52.90
2022-08-10T12:41:10.457Z,52.60
2022-08-10T12:44:07.032Z,52.70
2022-08-10T12:47:14.277Z,53.40
2022-08-10T12:50:26.726Z,52.30
2022-08-10T12:53:04.949Z,51.70
2022-08-10T12:55:54.176Z,52.60
2022-08-10T12:58:58.767Z,52.80
2022-08-10T13:01:18.787Z,52.50
2022-08-10T13:04:21.006Z,53.40
2022-08-10T13:06:53.297Z,53.60
2022-08-10T13:09:25.140Z,54.80
2022-08-10T13:12:36.582Z,57.90
2022-08-10T13:15:49.796Z,52.60
2022-08-10T13:18:26.183Z,53.40
2022-08-10T13:20:55.908Z,52.40
2022-08-10T13:23:29.174Z,50.10
2022-08-10T13:25:59.550Z,49.40
2022-08-10T13:28:45.411Z,49.20
2022-08-10T13:32:08.960Z,49.80
2022-08-10T13:34:45.289Z,49.90
2022-08-10T13:37:22.565Z,50.30
2022-08-10T13:39:59.071Z,49.40
2022-08-10T13:46:22.059Z,51.30
2022-08-10T13:48:54.202Z,52.60
2022-08-10T13:51:23.375Z,51.80
2022-08-10T13:54:11.768Z,52.10
2022-08-10T13:56:44.176Z,52.70
2022-08-10T13:59:16.166Z,51.80
2022-08-10T14:01:49.211Z,52.40
2022-08-10T14:04:17.764Z,52.30
2022-08-10T14:07:36.841Z,50.30
2022-08-10T14:14:04.047Z,48.30
2022-08-10T14:16:33.260Z,48.30
2022-08-10T14:19:04.919Z,48.00
2022-08-10T14:21:38.841Z,48.80
2022-08-10T14:24:06.248Z,48.30
2022-08-10T14:26:33.317Z,49.60
2022-08-10T14:29:08.451Z,47.80
2022-08-10T14:31:39.226Z,48.30
2022-08-10T14:36:17.418Z,49.60
2022-08-10T14:37:38.795Z,49.50
2022-08-10T14:40:11.614Z,50.40
2022-08-10T14:42:50.848Z,50.90
2022-08-10T14:45:29.104Z,51.10
2022-08-10T14:48:39.374Z,50.00
2022-08-10T14:51:07.644Z,50.30
2022-08-10T14:53:37.407Z,51.90
2022-08-10T15:04:31.001Z,53.50
2022-08-10T15:07:02.858Z,51.10
2022-08-10T15:10:01.417Z,49.50
2022-08-10T15:12:24.955Z,48.50
2022-08-10T15:14:58.545Z,47.70
2022-08-10T15:17:35.050Z,48.50
2022-08-10T15:24:50.710Z,47.50
2022-08-10T15:27:21.769Z,47.20
2022-08-10T15:29:56.644Z,47.90
2022-08-10T15:32:53.835Z,47.70
2022-08-10T15:35:42.532Z,47.10
2022-08-10T15:38:10.707Z,47.50
2022-08-10T15:40:51.288Z,47.60
2022-08-10T15:43:25.830Z,47.50
2022-08-10T15:46:29.993Z,46.60
2022-08-10T15:49:01.594Z,47.20
2022-08-10T15:52:01.861Z,49.10
2022-08-10T15:54:41.309Z,47.00
2022-08-10T15:57:20.719Z,47.30
2022-08-10T15:59:55.171Z,47.70
2022-08-10T16:02:27.478Z,47.50
2022-08-10T16:05:20.501Z,47.60
2022-08-10T16:08:10.422Z,47.70
2022-08-10T16:10:53.645Z,47.00
2022-08-10T16:13:50.402Z,47.80
2022-08-10T16:16:11.345Z,47.60
2022-08-10T16:18:40.923Z,48.90
2022-08-10T16:21:19.679Z,49.80
2022-08-10T16:24:14.940Z,50.00
2022-08-10T16:26:46.269Z,50.40
2022-08-10T16:29:23.611Z,52.30
2022-08-10T16:31:59.874Z,51.00
2022-08-10T16:34:29.267Z,49.60
2022-08-10T16:37:08.595Z,55.40
2022-08-10T16:39:57.711Z,55.50
2022-08-10T16:42:28.683Z,56.40
2022-08-10T16:45:03.992Z,56.90
2022-08-10T16:47:34.650Z,55.40
2022-08-10T16:50:05.757Z,52.40
2022-08-10T16:52:34.671Z,49.90
2022-08-10T16:55:23.392Z,49.50
2022-08-10T16:57:56.931Z,47.70
2022-08-10T17:00:25.699Z,50.40
2022-08-10T17:02:57.225Z,50.50
2022-08-10T17:06:09.730Z,48.70
2022-08-10T17:08:20.459Z,48.20
2022-08-10T17:10:51.433Z,49.90
2022-08-10T17:13:22.630Z,49.80
2022-08-10T17:15:53.674Z,49.20
2022-08-10T17:18:29.459Z,49.20
2022-08-10T17:21:00.090Z,49.90
2022-08-10T17:23:33.685Z,54.50
2022-08-10T17:26:07.837Z,54.50
2022-08-10T17:28:39.253Z,56.60
2022-08-10T17:31:23.791Z,57.50
2022-08-10T17:33:58.210Z,58.40
2022-08-10T17:36:32.225Z,58.70
2022-08-10T17:39:00.581Z,60.90
2022-08-10T17:41:31.340Z,60.30
2022-08-10T17:44:05.288Z,61.40
2022-08-10T17:46:36.367Z,62.00
2022-08-10T17:49:08.494Z,64.60
2022-08-10T17:51:38.269Z,63.40
2022-08-10T17:54:14.368Z,65.90
2022-08-10T17:56:41.879Z,67.30
2022-08-10T17:59:17.441Z,68.80
2022-08-10T18:02:01.489Z,69.10
2022-08-10T18:04:40.829Z,68.00
2022-08-10T18:07:10.789Z,70.80
2022-08-10T18:09:51.907Z,71.80
2022-08-10T18:12:36.154Z,72.80
2022-08-10T18:15:13.207Z,73.00
2022-08-10T18:17:44.752Z,72.70
2022-08-10T18:20:12.722Z,73.80
2022-08-10T18:22:44.774Z,72.60
2022-08-10T18:25:24.815Z,71.60
2022-08-10T18:28:04.289Z,73.80
2022-08-10T18:30:36.559Z,73.00
2022-08-10T18:33:09.259Z,74.40
2022-08-10T18:35:37.403Z,74.50
2022-08-10T18:38:06.681Z,74.10
2022-08-10T18:40:36.887Z,73.90
2022-08-10T18:44:07.554Z,73.00
2022-08-10T18:45:59.782Z,73.00
2022-08-10T18:48:37.175Z,73.00
2022-08-10T18:51:06.321Z,72.60
2022-08-10T18:53:50.544Z,73.20
2022-08-10T18:56:35.845Z,75.30
2022-08-10T18:59:13.698Z,74.50
2022-08-10T19:01:58.993Z,74.50
2022-08-10T19:04:56.946Z,72.30
2022-08-10T19:07:38.965Z,72.30
2022-08-10T19:10:33.980Z,75.40
2022-08-10T19:13:27.944Z,75.80
2022-08-10T19:16:07.317Z,74.70
2022-08-10T19:18:56.000Z,75.70
2022-08-10T19:21:47.567Z,74.80
2022-08-10T19:24:36.165Z,76.50
2022-08-10T19:27:35.390Z,76.20
2022-08-10T19:30:13.612Z,75.40
2022-08-10T19:33:02.478Z,76.40
2022-08-10T19:36:02.961Z,78.20
2022-08-10T19:38:51.369Z,76.00
2022-08-10T19:41:44.491Z,77.80
2022-08-10T19:44:26.805Z,77.30
2022-08-10T19:47:07.355Z,78.10
2022-08-10T19:49:49.224Z,78.80
2022-08-10T19:52:25.055Z,79.40
2022-08-10T19:55:04.803Z,79.70
2022-08-10T19:57:49.821Z,79.70
2022-08-10T20:00:22.961Z,80.40
2022-08-10T20:03:00.156Z,81.30
2022-08-10T20:05:36.361Z,81.20
2022-08-10T20:08:08.328Z,81.60
2022-08-10T20:10:56.894Z,82.40
2022-08-10T20:13:41.979Z,82.60
2022-08-10T20:16:19.847Z,83.40
2022-08-10T20:19:05.617Z,83.20
2022-08-10T20:21:47.291Z,83.80
2022-08-10T20:24:22.289Z,84.10
2022-08-10T20:27:13.332Z,83.30
2022-08-10T20:30:05.078Z,84.40
2022-08-10T20:32:38.622Z,84.60
2022-08-10T20:35:15.106Z,83.70
2022-08-10T20:38:03.753Z,82.90
2022-08-10T20:40:34.911Z,80.70
2022-08-10T20:43:42.626Z,81.30
2022-08-10T20:46:19.727Z,80.60
2022-08-10T20:48:55.331Z,80.30
2022-08-10T20:51:58.508Z,78.80
2022-08-10T20:54:15.401Z,80.40
2022-08-10T20:57:54.124Z,81.50
2022-08-10T21:00:13.699Z,80.10
2022-08-10T21:02:58.923Z,81.80
2022-08-10T21:06:03.222Z,82.40
2022-08-10T21:08:32.573Z,82.30
2022-08-10T21:11:11.556Z,82.30
2022-08-10T21:13:59.846Z,84.10
2022-08-10T21:16:38.495Z,84.20
2022-08-10T21:19:33.375Z,82.00
2022-08-10T21:22:12.384Z,81.70
2022-08-10T21:24:57.796Z,81.10
2022-08-10T21:27:55.409Z,79.50
2022-08-10T21:30:53.370Z,78.70
2022-08-10T21:33:59.738Z,77.40
2022-08-10T21:36:33.733Z,78.60
2022-08-10T21:39:15.177Z,77.80
2022-08-10T21:42:18.445Z,76.40
2022-08-10T21:45:24.690Z,75.70
2022-08-10T21:49:06.779Z,74.70
2022-08-10T21:52:05.987Z,77.30
2022-08-10T21:54:52.095Z,76.70
2022-08-10T21:57:45.802Z,75.70
2022-08-10T22:00:34.153Z,75.20
2022-08-10T22:03:22.272Z,77.20
2022-08-10T22:06:11.133Z,79.00
2022-08-10T22:09:04.075Z,76.20
2022-08-10T22:11:56.020Z,76.80
2022-08-10T22:14:46.012Z,77.40
2022-08-10T22:18:04.195Z,77.00
2022-08-10T22:20:49.516Z,76.40
2022-08-10T22:24:16.897Z,77.60
2022-08-10T22:27:46.437Z,75.50
2022-08-10T22:30:37.870Z,76.50
2022-08-10T22:33:59.540Z,74.50
2022-08-10T22:36:52.309Z,74.50
2022-08-10T22:40:11.164Z,76.40
2022-08-10T22:43:10.686Z,78.30
2022-08-10T22:46:07.037Z,79.00
2022-08-10T22:49:00.540Z,78.60
2022-08-10T22:51:58.048Z,78.10
2022-08-10T22:54:57.611Z,78.10
2022-08-10T22:57:44.004Z,77.00
2022-08-10T23:00:19.996Z,80.00
2022-08-10T23:03:05.178Z,80.80
2022-08-10T23:05:38.722Z,81.20
2022-08-10T23:08:19.536Z,82.40
2022-08-10T23:11:04.206Z,80.90
2022-08-10T23:13:38.897Z,82.00
2022-08-10T23:16:33.301Z,81.20
2022-08-10T23:19:09.961Z,81.90
2022-08-10T23:22:03.695Z,82.80
2022-08-10T23:24:31.987Z,84.10
2022-08-10T23:27:12.324Z,85.00
2022-08-10T23:30:03.845Z,85.50
2022-08-10T23:32:40.878Z,86.50
2022-08-10T23:36:12.973Z,88.10
2022-08-10T23:38:01.833Z,88.80
2022-08-10T23:40:29.168Z,89.10
2022-08-10T23:42:57.375Z,89.30
2022-08-10T23:45:27.131Z,89.90
2022-08-10T23:47:58.347Z,90.10
2022-08-10T23:50:28.710Z,90.10
2022-08-10T23:52:59.494Z,90.20
2022-08-10T23:55:30.360Z,90.40
2022-08-10T23:58:32.859Z,91.00
